sensor_id;sensor_type;location;lat;lon;timestamp;P1;durP1;ratioP1;P2;durP2;ratioP2
69161;SDS011;56269;51.738;21.652;2023-02-28T00:00:21;9.85;;;3.97;;
69161;SDS011;56269;51.738;21.652;2023-02-28T00:03:07;9.23;;;3.50;;
69161;SDS011;56269;51.738;21.652;2023-02-28T00:05:34;10.50;;;4.40;;
69161;SDS011;56269;51.738;21.652;2023-02-28T00:08:00;9.07;;;3.95;;
69161;SDS011;56269;51.738;21.652;2023-02-28T00:10:28;11.73;;;3.80;;
69161;SDS011;56269;51.738;21.652;2023-02-28T00:12:59;9.45;;;3.65;;
69161;SDS011;56269;51.738;21.652;2023-02-28T00:15:27;11.57;;;3.80;;
69161;SDS011;56269;51.738;21.652;2023-02-28T00:17:53;11.05;;;3.97;;
69161;SDS011;56269;51.738;21.652;2023-02-28T00:20:20;11.50;;;4.05;;
69161;SDS011;56269;51.738;21.652;2023-02-28T00:22:48;10.80;;;3.60;;
69161;SDS011;56269;51.738;21.652;2023-02-28T00:25:18;12.68;;;3.80;;
69161;SDS011;56269;51.738;21.652;2023-02-28T00:27:46;11.98;;;4.18;;
69161;SDS011;56269;51.738;21.652;2023-02-28T00:30:15;10.95;;;4.10;;
69161;SDS011;56269;51.738;21.652;2023-02-28T00:32:44;11.88;;;3.92;;
69161;SDS011;56269;51.738;21.652;2023-02-28T00:35:11;10.20;;;3.83;;
69161;SDS011;56269;51.738;21.652;2023-02-28T00:37:37;10.68;;;3.50;;
69161;SDS011;56269;51.738;21.652;2023-02-28T00:40:04;11.23;;;3.95;;
69161;SDS011;56269;51.738;21.652;2023-02-28T00:42:32;9.55;;;3.95;;
69161;SDS011;56269;51.738;21.652;2023-02-28T00:44:59;12.23;;;3.90;;
69161;SDS011;56269;51.738;21.652;2023-02-28T00:47:25;11.00;;;3.63;;
69161;SDS011;56269;51.738;21.652;2023-02-28T00:49:52;10.70;;;3.63;;
69161;SDS011;56269;51.738;21.652;2023-02-28T00:52:18;10.30;;;3.60;;
69161;SDS011;56269;51.738;21.652;2023-02-28T00:54:44;12.18;;;4.00;;
69161;SDS011;56269;51.738;21.652;2023-02-28T00:57:10;13.30;;;4.32;;
69161;SDS011;56269;51.738;21.652;2023-02-28T00:59:36;10.93;;;4.07;;
69161;SDS011;56269;51.738;21.652;2023-02-28T01:02:02;11.00;;;3.45;;
69161;SDS011;56269;51.738;21.652;2023-02-28T01:04:29;10.32;;;3.88;;
69161;SDS011;56269;51.738;21.652;2023-02-28T01:06:55;11.85;;;3.60;;
69161;SDS011;56269;51.738;21.652;2023-02-28T01:09:21;14.02;;;3.85;;
69161;SDS011;56269;51.738;21.652;2023-02-28T01:11:47;10.70;;;3.50;;
69161;SDS011;56269;51.738;21.652;2023-02-28T01:14:14;8.75;;;3.40;;
69161;SDS011;56269;51.738;21.652;2023-02-28T01:16:42;9.88;;;3.70;;
69161;SDS011;56269;51.738;21.652;2023-02-28T01:19:09;11.88;;;4.10;;
69161;SDS011;56269;51.738;21.652;2023-02-28T01:21:35;9.95;;;3.70;;
69161;SDS011;56269;51.738;21.652;2023-02-28T01:24:02;10.73;;;3.73;;
69161;SDS011;56269;51.738;21.652;2023-02-28T01:26:29;7.93;;;3.35;;
69161;SDS011;56269;51.738;21.652;2023-02-28T01:28:56;13.02;;;3.50;;
69161;SDS011;56269;51.738;21.652;2023-02-28T01:31:22;9.70;;;3.60;;
69161;SDS011;56269;51.738;21.652;2023-02-28T01:33:49;13.30;;;3.85;;
69161;SDS011;56269;51.738;21.652;2023-02-28T01:36:17;11.20;;;3.97;;
69161;SDS011;56269;51.738;21.652;2023-02-28T01:38:47;11.93;;;4.00;;
69161;SDS011;56269;51.738;21.652;2023-02-28T01:41:18;11.75;;;3.97;;
69161;SDS011;56269;51.738;21.652;2023-02-28T01:46:12;11.57;;;4.22;;
69161;SDS011;56269;51.738;21.652;2023-02-28T01:49:21;10.77;;;3.85;;
69161;SDS011;56269;51.738;21.652;2023-02-28T01:51:47;11.13;;;3.92;;
69161;SDS011;56269;51.738;21.652;2023-02-28T01:54:27;9.93;;;4.05;;
69161;SDS011;56269;51.738;21.652;2023-02-28T01:56:59;10.82;;;4.50;;
69161;SDS011;56269;51.738;21.652;2023-02-28T01:59:29;8.80;;;3.78;;
69161;SDS011;56269;51.738;21.652;2023-02-28T02:01:59;10.07;;;3.83;;
69161;SDS011;56269;51.738;21.652;2023-02-28T02:04:28;12.00;;;4.25;;
69161;SDS011;56269;51.738;21.652;2023-02-28T02:07:02;11.88;;;3.78;;
69161;SDS011;56269;51.738;21.652;2023-02-28T02:09:29;13.18;;;4.20;;
69161;SDS011;56269;51.738;21.652;2023-02-28T02:11:55;9.02;;;3.33;;
69161;SDS011;56269;51.738;21.652;2023-02-28T02:15:24;12.43;;;3.63;;
69161;SDS011;56269;51.738;21.652;2023-02-28T02:17:40;9.65;;;3.72;;
69161;SDS011;56269;51.738;21.652;2023-02-28T02:20:34;11.18;;;3.40;;
69161;SDS011;56269;51.738;21.652;2023-02-28T02:34:09;12.18;;;3.90;;
69161;SDS011;56269;51.738;21.652;2023-02-28T02:37:13;10.50;;;3.72;;
69161;SDS011;56269;51.738;21.652;2023-02-28T02:45:48;12.98;;;4.07;;
69161;SDS011;56269;51.738;21.652;2023-02-28T02:48:29;12.00;;;4.45;;
69161;SDS011;56269;51.738;21.652;2023-02-28T02:50:59;11.15;;;4.05;;
69161;SDS011;56269;51.738;21.652;2023-02-28T02:53:39;11.32;;;4.22;;
69161;SDS011;56269;51.738;21.652;2023-02-28T02:56:08;12.57;;;4.18;;
69161;SDS011;56269;51.738;21.652;2023-02-28T02:58:37;11.43;;;4.43;;
69161;SDS011;56269;51.738;21.652;2023-02-28T03:01:07;11.40;;;4.50;;
69161;SDS011;56269;51.738;21.652;2023-02-28T03:03:40;14.15;;;4.80;;
69161;SDS011;56269;51.738;21.652;2023-02-28T03:06:06;11.35;;;4.13;;
69161;SDS011;56269;51.738;21.652;2023-02-28T03:08:35;15.27;;;4.97;;
69161;SDS011;56269;51.738;21.652;2023-02-28T03:11:04;13.13;;;4.78;;
69161;SDS011;56269;51.738;21.652;2023-02-28T03:24:03;14.48;;;4.55;;
69161;SDS011;56269;51.738;21.652;2023-02-28T03:26:30;12.35;;;4.28;;
69161;SDS011;56269;51.738;21.652;2023-02-28T03:31:41;12.52;;;4.15;;
69161;SDS011;56269;51.738;21.652;2023-02-28T03:37:04;14.02;;;4.50;;
69161;SDS011;56269;51.738;21.652;2023-02-28T03:39:42;12.60;;;4.47;;
69161;SDS011;56269;51.738;21.652;2023-02-28T03:42:20;11.77;;;4.43;;
69161;SDS011;56269;51.738;21.652;2023-02-28T03:44:52;16.23;;;4.75;;
69161;SDS011;56269;51.738;21.652;2023-02-28T03:49:57;14.57;;;5.03;;
69161;SDS011;56269;51.738;21.652;2023-02-28T03:53:37;15.80;;;5.38;;
69161;SDS011;56269;51.738;21.652;2023-02-28T03:55:52;13.00;;;4.45;;
69161;SDS011;56269;51.738;21.652;2023-02-28T04:01:15;12.05;;;4.22;;
69161;SDS011;56269;51.738;21.652;2023-02-28T04:03:46;15.23;;;4.43;;
69161;SDS011;56269;51.738;21.652;2023-02-28T04:06:14;14.27;;;5.32;;
69161;SDS011;56269;51.738;21.652;2023-02-28T04:08:43;14.90;;;4.90;;
69161;SDS011;56269;51.738;21.652;2023-02-28T04:11:21;12.60;;;5.05;;
69161;SDS011;56269;51.738;21.652;2023-02-28T04:13:49;13.38;;;5.22;;
69161;SDS011;56269;51.738;21.652;2023-02-28T04:16:15;18.08;;;5.85;;
69161;SDS011;56269;51.738;21.652;2023-02-28T04:18:42;15.98;;;4.70;;
69161;SDS011;56269;51.738;21.652;2023-02-28T04:21:11;13.82;;;5.18;;
69161;SDS011;56269;51.738;21.652;2023-02-28T04:23:38;14.80;;;5.15;;
69161;SDS011;56269;51.738;21.652;2023-02-28T04:26:05;13.50;;;5.30;;
69161;SDS011;56269;51.738;21.652;2023-02-28T04:28:32;18.50;;;5.68;;
69161;SDS011;56269;51.738;21.652;2023-02-28T04:31:00;12.15;;;5.00;;
69161;SDS011;56269;51.738;21.652;2023-02-28T04:33:30;18.30;;;6.07;;
69161;SDS011;56269;51.738;21.652;2023-02-28T04:36:02;14.32;;;5.30;;
69161;SDS011;56269;51.738;21.652;2023-02-28T04:38:32;15.23;;;6.03;;
69161;SDS011;56269;51.738;21.652;2023-02-28T04:40:59;14.00;;;5.65;;
69161;SDS011;56269;51.738;21.652;2023-02-28T04:43:26;18.27;;;7.05;;
69161;SDS011;56269;51.738;21.652;2023-02-28T04:45:54;26.38;;;10.85;;
69161;SDS011;56269;51.738;21.652;2023-02-28T04:48:25;17.55;;;6.05;;
69161;SDS011;56269;51.738;21.652;2023-02-28T04:50:54;15.18;;;6.28;;
69161;SDS011;56269;51.738;21.652;2023-02-28T04:53:20;16.33;;;6.43;;
69161;SDS011;56269;51.738;21.652;2023-02-28T04:55:47;18.05;;;6.80;;
69161;SDS011;56269;51.738;21.652;2023-02-28T04:58:13;15.30;;;5.93;;
69161;SDS011;56269;51.738;21.652;2023-02-28T05:00:40;16.13;;;5.80;;
69161;SDS011;56269;51.738;21.652;2023-02-28T05:03:06;13.57;;;5.70;;
69161;SDS011;56269;51.738;21.652;2023-02-28T05:05:32;16.45;;;5.40;;
69161;SDS011;56269;51.738;21.652;2023-02-28T05:07:58;16.83;;;5.90;;
69161;SDS011;56269;51.738;21.652;2023-02-28T05:10:25;15.02;;;5.18;;
69161;SDS011;56269;51.738;21.652;2023-02-28T05:12:52;13.37;;;4.37;;
69161;SDS011;56269;51.738;21.652;2023-02-28T05:15:18;12.70;;;5.22;;
69161;SDS011;56269;51.738;21.652;2023-02-28T05:17:44;16.65;;;5.65;;
69161;SDS011;56269;51.738;21.652;2023-02-28T05:20:10;19.92;;;5.45;;
69161;SDS011;56269;51.738;21.652;2023-02-28T05:22:39;14.55;;;5.35;;
69161;SDS011;56269;51.738;21.652;2023-02-28T05:25:06;17.43;;;5.30;;
69161;SDS011;56269;51.738;21.652;2023-02-28T05:27:34;15.68;;;5.18;;
69161;SDS011;56269;51.738;21.652;2023-02-28T05:30:00;17.88;;;5.78;;
69161;SDS011;56269;51.738;21.652;2023-02-28T05:32:29;16.45;;;6.43;;
69161;SDS011;56269;51.738;21.652;2023-02-28T05:34:55;14.27;;;5.80;;
69161;SDS011;56269;51.738;21.652;2023-02-28T05:37:21;13.87;;;5.30;;
69161;SDS011;56269;51.738;21.652;2023-02-28T05:39:48;16.83;;;5.93;;
69161;SDS011;56269;51.738;21.652;2023-02-28T05:42:14;18.55;;;6.32;;
69161;SDS011;56269;51.738;21.652;2023-02-28T05:44:40;14.95;;;5.15;;
69161;SDS011;56269;51.738;21.652;2023-02-28T05:47:07;15.95;;;5.97;;
69161;SDS011;56269;51.738;21.652;2023-02-28T05:49:33;16.57;;;5.90;;
69161;SDS011;56269;51.738;21.652;2023-02-28T05:52:00;12.90;;;5.03;;
69161;SDS011;56269;51.738;21.652;2023-02-28T05:54:26;15.45;;;6.05;;
69161;SDS011;56269;51.738;21.652;2023-02-28T05:56:52;18.13;;;6.20;;
69161;SDS011;56269;51.738;21.652;2023-02-28T05:59:18;15.95;;;6.57;;
69161;SDS011;56269;51.738;21.652;2023-02-28T06:01:46;16.27;;;6.53;;
69161;SDS011;56269;51.738;21.652;2023-02-28T06:04:16;16.67;;;6.88;;
69161;SDS011;56269;51.738;21.652;2023-02-28T06:06:48;16.45;;;6.40;;
69161;SDS011;56269;51.738;21.652;2023-02-28T06:09:15;18.42;;;7.32;;
69161;SDS011;56269;51.738;21.652;2023-02-28T06:11:42;17.25;;;6.45;;
69161;SDS011;56269;51.738;21.652;2023-02-28T06:14:12;19.90;;;7.23;;
69161;SDS011;56269;51.738;21.652;2023-02-28T06:16:42;17.60;;;7.13;;
69161;SDS011;56269;51.738;21.652;2023-02-28T06:19:09;16.30;;;6.30;;
69161;SDS011;56269;51.738;21.652;2023-02-28T06:21:35;18.65;;;7.45;;
69161;SDS011;56269;51.738;21.652;2023-02-28T06:24:02;19.20;;;6.70;;
69161;SDS011;56269;51.738;21.652;2023-02-28T06:26:29;17.80;;;6.77;;
69161;SDS011;56269;51.738;21.652;2023-02-28T06:28:56;17.13;;;7.10;;
69161;SDS011;56269;51.738;21.652;2023-02-28T06:31:22;25.63;;;7.97;;
69161;SDS011;56269;51.738;21.652;2023-02-28T06:33:50;20.48;;;7.60;;
69161;SDS011;56269;51.738;21.652;2023-02-28T06:36:16;21.67;;;8.43;;
69161;SDS011;56269;51.738;21.652;2023-02-28T06:38:43;23.57;;;8.60;;
69161;SDS011;56269;51.738;21.652;2023-02-28T06:41:10;24.33;;;8.70;;
69161;SDS011;56269;51.738;21.652;2023-02-28T06:43:38;19.35;;;8.13;;
69161;SDS011;56269;51.738;21.652;2023-02-28T06:46:07;25.83;;;8.93;;
69161;SDS011;56269;51.738;21.652;2023-02-28T06:48:36;26.98;;;9.95;;
69161;SDS011;56269;51.738;21.652;2023-02-28T06:51:09;22.40;;;8.00;;
69161;SDS011;56269;51.738;21.652;2023-02-28T06:53:41;21.88;;;8.45;;
69161;SDS011;56269;51.738;21.652;2023-02-28T06:56:08;23.35;;;9.25;;
69161;SDS011;56269;51.738;21.652;2023-02-28T06:58:37;23.77;;;9.77;;
69161;SDS011;56269;51.738;21.652;2023-02-28T07:01:05;26.25;;;10.25;;
69161;SDS011;56269;51.738;21.652;2023-02-28T07:03:32;21.20;;;8.30;;
69161;SDS011;56269;51.738;21.652;2023-02-28T07:06:00;21.83;;;7.95;;
69161;SDS011;56269;51.738;21.652;2023-02-28T07:08:26;24.70;;;8.88;;
69161;SDS011;56269;51.738;21.652;2023-02-28T07:10:53;22.77;;;7.70;;
69161;SDS011;56269;51.738;21.652;2023-02-28T07:13:21;24.63;;;9.55;;
69161;SDS011;56269;51.738;21.652;2023-02-28T07:16:01;21.63;;;7.67;;
69161;SDS011;56269;51.738;21.652;2023-02-28T07:18:32;25.33;;;9.98;;
69161;SDS011;56269;51.738;21.652;2023-02-28T07:20:58;24.95;;;9.35;;
69161;SDS011;56269;51.738;21.652;2023-02-28T07:23:24;17.70;;;6.78;;
69161;SDS011;56269;51.738;21.652;2023-02-28T07:25:50;25.35;;;10.15;;
69161;SDS011;56269;51.738;21.652;2023-02-28T07:28:17;8.23;;;3.60;;
69161;SDS011;56269;51.738;21.652;2023-02-28T07:30:44;22.95;;;8.38;;
69161;SDS011;56269;51.738;21.652;2023-02-28T07:33:10;23.25;;;9.10;;
69161;SDS011;56269;51.738;21.652;2023-02-28T07:35:36;15.20;;;6.32;;
69161;SDS011;56269;51.738;21.652;2023-02-28T07:38:02;23.33;;;8.57;;
69161;SDS011;56269;51.738;21.652;2023-02-28T07:40:29;19.43;;;6.80;;
69161;SDS011;56269;51.738;21.652;2023-02-28T07:42:55;11.45;;;4.63;;
69161;SDS011;56269;51.738;21.652;2023-02-28T07:45:21;10.70;;;4.45;;
69161;SDS011;56269;51.738;21.652;2023-02-28T07:47:47;14.32;;;6.15;;
69161;SDS011;56269;51.738;21.652;2023-02-28T07:50:15;12.13;;;4.18;;
69161;SDS011;56269;51.738;21.652;2023-02-28T07:52:42;15.07;;;5.83;;
69161;SDS011;56269;51.738;21.652;2023-02-28T07:55:08;10.45;;;3.85;;
69161;SDS011;56269;51.738;21.652;2023-02-28T07:57:35;14.45;;;6.47;;
69161;SDS011;56269;51.738;21.652;2023-02-28T08:00:05;11.90;;;4.38;;
69161;SDS011;56269;51.738;21.652;2023-02-28T08:02:35;15.52;;;5.90;;
69161;SDS011;56269;51.738;21.652;2023-02-28T08:05:02;12.57;;;4.97;;
69161;SDS011;56269;51.738;21.652;2023-02-28T08:07:28;15.80;;;5.88;;
69161;SDS011;56269;51.738;21.652;2023-02-28T08:09:54;14.95;;;6.13;;
69161;SDS011;56269;51.738;21.652;2023-02-28T08:12:21;15.10;;;6.35;;
69161;SDS011;56269;51.738;21.652;2023-02-28T08:14:47;13.20;;;5.93;;
69161;SDS011;56269;51.738;21.652;2023-02-28T08:17:13;13.43;;;6.37;;
69161;SDS011;56269;51.738;21.652;2023-02-28T08:19:39;17.25;;;7.40;;
69161;SDS011;56269;51.738;21.652;2023-02-28T08:22:05;14.07;;;6.97;;
69161;SDS011;56269;51.738;21.652;2023-02-28T08:24:31;14.15;;;6.03;;
69161;SDS011;56269;51.738;21.652;2023-02-28T08:26:59;15.20;;;7.43;;
69161;SDS011;56269;51.738;21.652;2023-02-28T08:29:25;16.77;;;7.20;;
69161;SDS011;56269;51.738;21.652;2023-02-28T08:31:51;13.05;;;6.50;;
69161;SDS011;56269;51.738;21.652;2023-02-28T08:34:17;12.57;;;6.07;;
69161;SDS011;56269;51.738;21.652;2023-02-28T08:36:44;14.75;;;6.90;;
69161;SDS011;56269;51.738;21.652;2023-02-28T08:39:11;15.23;;;6.80;;
69161;SDS011;56269;51.738;21.652;2023-02-28T08:41:38;12.47;;;6.10;;
69161;SDS011;56269;51.738;21.652;2023-02-28T08:44:05;14.25;;;6.47;;
69161;SDS011;56269;51.738;21.652;2023-02-28T08:46:31;16.27;;;7.50;;
69161;SDS011;56269;51.738;21.652;2023-02-28T08:48:57;14.98;;;6.60;;
69161;SDS011;56269;51.738;21.652;2023-02-28T08:51:25;13.13;;;6.20;;
69161;SDS011;56269;51.738;21.652;2023-02-28T08:53:52;14.87;;;6.77;;
69161;SDS011;56269;51.738;21.652;2023-02-28T08:56:20;13.98;;;6.88;;
69161;SDS011;56269;51.738;21.652;2023-02-28T08:58:46;13.80;;;6.28;;
69161;SDS011;56269;51.738;21.652;2023-02-28T09:01:15;16.33;;;6.70;;
69161;SDS011;56269;51.738;21.652;2023-02-28T09:03:43;12.23;;;4.28;;
69161;SDS011;56269;51.738;21.652;2023-02-28T09:06:12;15.33;;;6.40;;
69161;SDS011;56269;51.738;21.652;2023-02-28T09:08:39;14.07;;;6.28;;
69161;SDS011;56269;51.738;21.652;2023-02-28T09:11:06;12.18;;;6.05;;
69161;SDS011;56269;51.738;21.652;2023-02-28T09:13:32;13.13;;;6.25;;
69161;SDS011;56269;51.738;21.652;2023-02-28T09:16:00;15.88;;;6.28;;
69161;SDS011;56269;51.738;21.652;2023-02-28T09:18:28;14.93;;;5.63;;
69161;SDS011;56269;51.738;21.652;2023-02-28T09:20:55;15.07;;;6.43;;
69161;SDS011;56269;51.738;21.652;2023-02-28T09:23:23;13.65;;;5.57;;
69161;SDS011;56269;51.738;21.652;2023-02-28T09:25:51;13.73;;;6.25;;
69161;SDS011;56269;51.738;21.652;2023-02-28T09:28:18;15.18;;;6.45;;
69161;SDS011;56269;51.738;21.652;2023-02-28T09:30:50;15.07;;;6.50;;
69161;SDS011;56269;51.738;21.652;2023-02-28T09:33:18;11.40;;;4.68;;
69161;SDS011;56269;51.738;21.652;2023-02-28T09:35:47;14.07;;;5.78;;
69161;SDS011;56269;51.738;21.652;2023-02-28T09:38:14;12.07;;;4.80;;
69161;SDS011;56269;51.738;21.652;2023-02-28T09:40:50;15.23;;;6.60;;
69161;SDS011;56269;51.738;21.652;2023-02-28T09:43:18;15.70;;;6.90;;
69161;SDS011;56269;51.738;21.652;2023-02-28T09:45:48;10.50;;;4.22;;
69161;SDS011;56269;51.738;21.652;2023-02-28T09:48:25;12.55;;;5.13;;
69161;SDS011;56269;51.738;21.652;2023-02-28T09:50:56;11.75;;;5.05;;
69161;SDS011;56269;51.738;21.652;2023-02-28T09:53:29;13.75;;;6.53;;
69161;SDS011;56269;51.738;21.652;2023-02-28T09:56:42;15.20;;;6.33;;
69161;SDS011;56269;51.738;21.652;2023-02-28T09:59:02;14.30;;;6.13;;
69161;SDS011;56269;51.738;21.652;2023-02-28T10:01:31;16.38;;;6.53;;
69161;SDS011;56269;51.738;21.652;2023-02-28T10:04:24;10.90;;;4.43;;
69161;SDS011;56269;51.738;21.652;2023-02-28T10:06:53;15.18;;;6.28;;
69161;SDS011;56269;51.738;21.652;2023-02-28T10:09:21;14.97;;;6.20;;
69161;SDS011;56269;51.738;21.652;2023-02-28T10:11:51;14.77;;;6.32;;
69161;SDS011;56269;51.738;21.652;2023-02-28T10:14:23;15.35;;;6.32;;
69161;SDS011;56269;51.738;21.652;2023-02-28T10:16:53;13.95;;;6.55;;
69161;SDS011;56269;51.738;21.652;2023-02-28T10:22:03;13.33;;;5.00;;
69161;SDS011;56269;51.738;21.652;2023-02-28T10:24:39;12.43;;;5.15;;
69161;SDS011;56269;51.738;21.652;2023-02-28T10:27:18;9.43;;;4.32;;
69161;SDS011;56269;51.738;21.652;2023-02-28T10:29:51;14.93;;;6.07;;
69161;SDS011;56269;51.738;21.652;2023-02-28T10:32:33;14.15;;;5.65;;
69161;SDS011;56269;51.738;21.652;2023-02-28T10:37:40;13.07;;;5.90;;
69161;SDS011;56269;51.738;21.652;2023-02-28T10:40:28;16.48;;;6.70;;
69161;SDS011;56269;51.738;21.652;2023-02-28T10:43:07;17.33;;;6.63;;
69161;SDS011;56269;51.738;21.652;2023-02-28T10:45:55;13.48;;;6.47;;
69161;SDS011;56269;51.738;21.652;2023-02-28T10:51:14;15.07;;;7.00;;
69161;SDS011;56269;51.738;21.652;2023-02-28T10:53:50;14.15;;;6.40;;
69161;SDS011;56269;51.738;21.652;2023-02-28T10:56:18;9.02;;;3.63;;
69161;SDS011;56269;51.738;21.652;2023-02-28T11:01:40;12.07;;;5.07;;
69161;SDS011;56269;51.738;21.652;2023-02-28T11:06:46;16.83;;;7.43;;
69161;SDS011;56269;51.738;21.652;2023-02-28T11:09:27;14.07;;;6.50;;
69161;SDS011;56269;51.738;21.652;2023-02-28T11:12:00;12.98;;;6.13;;
69161;SDS011;56269;51.738;21.652;2023-02-28T11:14:30;13.10;;;5.73;;
69161;SDS011;56269;51.738;21.652;2023-02-28T11:17:11;14.68;;;5.90;;
69161;SDS011;56269;51.738;21.652;2023-02-28T11:19:44;15.82;;;7.10;;
69161;SDS011;56269;51.738;21.652;2023-02-28T11:22:15;15.00;;;6.50;;
69161;SDS011;56269;51.738;21.652;2023-02-28T11:24:47;8.02;;;3.63;;
69161;SDS011;56269;51.738;21.652;2023-02-28T11:27:24;13.67;;;6.13;;
69161;SDS011;56269;51.738;21.652;2023-02-28T11:29:51;13.43;;;5.75;;
69161;SDS011;56269;51.738;21.652;2023-02-28T11:32:23;12.63;;;4.93;;
69161;SDS011;56269;51.738;21.652;2023-02-28T11:37:42;11.52;;;4.35;;
69161;SDS011;56269;51.738;21.652;2023-02-28T11:40:15;11.37;;;5.20;;
69161;SDS011;56269;51.738;21.652;2023-02-28T11:43:20;15.50;;;6.13;;
69161;SDS011;56269;51.738;21.652;2023-02-28T11:46:20;12.02;;;5.65;;
69161;SDS011;56269;51.738;21.652;2023-02-28T11:54:34;10.83;;;4.80;;
69161;SDS011;56269;51.738;21.652;2023-02-28T11:59:55;12.90;;;5.63;;
69161;SDS011;56269;51.738;21.652;2023-02-28T12:05:34;11.38;;;4.80;;
69161;SDS011;56269;51.738;21.652;2023-02-28T12:11:03;12.38;;;5.50;;
69161;SDS011;56269;51.738;21.652;2023-02-28T12:16:25;14.20;;;6.40;;
69161;SDS011;56269;51.738;21.652;2023-02-28T12:19:13;14.35;;;5.68;;
69161;SDS011;56269;51.738;21.652;2023-02-28T12:22:27;13.90;;;5.77;;
69161;SDS011;56269;51.738;21.652;2023-02-28T12:24:55;9.00;;;3.35;;
69161;SDS011;56269;51.738;21.652;2023-02-28T12:27:46;12.55;;;4.45;;
69161;SDS011;56269;51.738;21.652;2023-02-28T12:30:27;11.20;;;4.78;;
69161;SDS011;56269;51.738;21.652;2023-02-28T12:35:32;13.10;;;6.20;;
69161;SDS011;56269;51.738;21.652;2023-02-28T12:38:31;13.82;;;6.25;;
69161;SDS011;56269;51.738;21.652;2023-02-28T12:41:05;10.52;;;4.38;;
69161;SDS011;56269;51.738;21.652;2023-02-28T12:43:40;13.50;;;6.35;;
69161;SDS011;56269;51.738;21.652;2023-02-28T12:46:28;13.45;;;6.13;;
69161;SDS011;56269;51.738;21.652;2023-02-28T12:49:00;14.13;;;6.40;;
69161;SDS011;56269;51.738;21.652;2023-02-28T12:51:32;14.45;;;6.13;;
69161;SDS011;56269;51.738;21.652;2023-02-28T12:56:38;15.10;;;6.55;;
69161;SDS011;56269;51.738;21.652;2023-02-28T12:59:34;12.98;;;5.47;;
69161;SDS011;56269;51.738;21.652;2023-02-28T13:02:17;12.47;;;5.23;;
69161;SDS011;56269;51.738;21.652;2023-02-28T13:07:45;14.48;;;6.47;;
69161;SDS011;56269;51.738;21.652;2023-02-28T13:10:43;10.13;;;4.28;;
69161;SDS011;56269;51.738;21.652;2023-02-28T13:13:19;12.05;;;6.03;;
69161;SDS011;56269;51.738;21.652;2023-02-28T13:16:01;8.37;;;3.67;;
69161;SDS011;56269;51.738;21.652;2023-02-28T13:18:37;15.73;;;5.97;;
69161;SDS011;56269;51.738;21.652;2023-02-28T13:21:06;15.60;;;6.53;;
69161;SDS011;56269;51.738;21.652;2023-02-28T13:26:06;11.90;;;5.60;;
69161;SDS011;56269;51.738;21.652;2023-02-28T13:31:14;13.85;;;5.60;;
69161;SDS011;56269;51.738;21.652;2023-02-28T13:38:58;11.98;;;5.28;;
69161;SDS011;56269;51.738;21.652;2023-02-28T14:05:46;13.93;;;6.32;;
69161;SDS011;56269;51.738;21.652;2023-02-28T14:08:18;15.13;;;6.20;;
69161;SDS011;56269;51.738;21.652;2023-02-28T14:10:49;13.00;;;5.70;;
69161;SDS011;56269;51.738;21.652;2023-02-28T14:13:38;11.63;;;4.88;;
69161;SDS011;56269;51.738;21.652;2023-02-28T14:16:17;15.07;;;6.43;;
69161;SDS011;56269;51.738;21.652;2023-02-28T14:18:51;14.73;;;6.47;;
69161;SDS011;56269;51.738;21.652;2023-02-28T14:21:25;12.73;;;5.73;;
69161;SDS011;56269;51.738;21.652;2023-02-28T14:24:16;14.13;;;6.38;;
69161;SDS011;56269;51.738;21.652;2023-02-28T14:27:11;15.85;;;6.75;;
69161;SDS011;56269;51.738;21.652;2023-02-28T14:34:55;15.60;;;6.53;;
69161;SDS011;56269;51.738;21.652;2023-02-28T14:37:36;16.63;;;7.07;;
69161;SDS011;56269;51.738;21.652;2023-02-28T14:40:11;15.98;;;7.00;;
69161;SDS011;56269;51.738;21.652;2023-02-28T14:42:46;13.13;;;5.22;;
69161;SDS011;56269;51.738;21.652;2023-02-28T14:45:20;16.00;;;6.68;;
69161;SDS011;56269;51.738;21.652;2023-02-28T14:47:49;12.80;;;5.77;;
69161;SDS011;56269;51.738;21.652;2023-02-28T14:50:17;14.43;;;6.43;;
69161;SDS011;56269;51.738;21.652;2023-02-28T14:52:55;14.65;;;6.55;;
69161;SDS011;56269;51.738;21.652;2023-02-28T14:55:24;17.45;;;7.65;;
69161;SDS011;56269;51.738;21.652;2023-02-28T14:57:56;14.15;;;6.30;;
69161;SDS011;56269;51.738;21.652;2023-02-28T15:02:55;13.45;;;5.65;;
69161;SDS011;56269;51.738;21.652;2023-02-28T15:05:24;14.38;;;5.63;;
69161;SDS011;56269;51.738;21.652;2023-02-28T15:08:28;12.73;;;5.18;;
69161;SDS011;56269;51.738;21.652;2023-02-28T15:11:07;11.77;;;4.50;;
69161;SDS011;56269;51.738;21.652;2023-02-28T15:13:42;13.23;;;5.00;;
69161;SDS011;56269;51.738;21.652;2023-02-28T15:18:48;8.75;;;3.45;;
69161;SDS011;56269;51.738;21.652;2023-02-28T15:21:21;9.90;;;3.78;;
69161;SDS011;56269;51.738;21.652;2023-02-28T15:26:23;9.57;;;4.03;;
69161;SDS011;56269;51.738;21.652;2023-02-28T15:29:04;14.15;;;5.18;;
69161;SDS011;56269;51.738;21.652;2023-02-28T15:31:33;13.48;;;5.50;;
69161;SDS011;56269;51.738;21.652;2023-02-28T15:34:15;14.00;;;5.38;;
69161;SDS011;56269;51.738;21.652;2023-02-28T15:36:46;12.93;;;5.70;;
69161;SDS011;56269;51.738;21.652;2023-02-28T15:39:45;10.07;;;4.20;;
69161;SDS011;56269;51.738;21.652;2023-02-28T15:42:11;6.82;;;2.47;;
69161;SDS011;56269;51.738;21.652;2023-02-28T15:44:39;12.20;;;4.97;;
69161;SDS011;56269;51.738;21.652;2023-02-28T15:47:14;12.32;;;4.82;;
69161;SDS011;56269;51.738;21.652;2023-02-28T15:49:47;14.68;;;5.88;;
69161;SDS011;56269;51.738;21.652;2023-02-28T15:52:56;13.77;;;5.60;;
69161;SDS011;56269;51.738;21.652;2023-02-28T15:57:48;13.95;;;5.53;;
69161;SDS011;56269;51.738;21.652;2023-02-28T16:00:20;12.98;;;5.85;;
69161;SDS011;56269;51.738;21.652;2023-02-28T16:02:48;16.38;;;6.40;;
69161;SDS011;56269;51.738;21.652;2023-02-28T16:05:20;13.93;;;6.40;;
69161;SDS011;56269;51.738;21.652;2023-02-28T16:07:58;14.60;;;6.13;;
69161;SDS011;56269;51.738;21.652;2023-02-28T16:10:26;14.27;;;6.20;;
69161;SDS011;56269;51.738;21.652;2023-02-28T16:12:54;14.88;;;6.53;;
69161;SDS011;56269;51.738;21.652;2023-02-28T16:15:23;14.23;;;5.85;;
69161;SDS011;56269;51.738;21.652;2023-02-28T16:17:54;13.97;;;6.23;;
69161;SDS011;56269;51.738;21.652;2023-02-28T16:20:22;14.48;;;6.25;;
69161;SDS011;56269;51.738;21.652;2023-02-28T16:22:55;14.88;;;5.63;;
69161;SDS011;56269;51.738;21.652;2023-02-28T16:25:37;15.32;;;5.70;;
69161;SDS011;56269;51.738;21.652;2023-02-28T16:28:19;15.70;;;5.63;;
69161;SDS011;56269;51.738;21.652;2023-02-28T16:31:02;13.40;;;5.23;;
69161;SDS011;56269;51.738;21.652;2023-02-28T16:33:30;15.55;;;5.85;;
69161;SDS011;56269;51.738;21.652;2023-02-28T16:35:57;12.95;;;5.80;;
69161;SDS011;56269;51.738;21.652;2023-02-28T16:38:23;12.68;;;5.55;;
69161;SDS011;56269;51.738;21.652;2023-02-28T16:40:51;14.30;;;5.60;;
69161;SDS011;56269;51.738;21.652;2023-02-28T16:43:19;15.67;;;5.77;;
69161;SDS011;56269;51.738;21.652;2023-02-28T16:45:52;15.52;;;6.05;;
69161;SDS011;56269;51.738;21.652;2023-02-28T16:48:22;13.13;;;5.90;;
69161;SDS011;56269;51.738;21.652;2023-02-28T16:50:48;16.92;;;6.20;;
69161;SDS011;56269;51.738;21.652;2023-02-28T16:53:14;15.07;;;6.13;;
69161;SDS011;56269;51.738;21.652;2023-02-28T16:55:41;15.47;;;5.40;;
69161;SDS011;56269;51.738;21.652;2023-02-28T16:58:10;16.33;;;6.20;;
69161;SDS011;56269;51.738;21.652;2023-02-28T17:00:41;14.57;;;6.10;;